sensor_id;sensor_type;location;lat;lon;timestamp;P1;durP1;ratioP1;P2;durP2;ratioP2
41661;SDS011;27351;45.992;12.666;2024-02-14T00:00:32;5.23;;;2.43;;
41661;SDS011;27351;45.992;12.666;2024-02-14T00:02:58;6.77;;;2.30;;
41661;SDS011;27351;45.992;12.666;2024-02-14T00:05:23;4.80;;;1.93;;
41661;SDS011;27351;45.992;12.666;2024-02-14T00:07:49;5.63;;;1.90;;
41661;SDS011;27351;45.992;12.666;2024-02-14T00:10:15;3.23;;;2.00;;
41661;SDS011;27351;45.992;12.666;2024-02-14T00:12:40;3.70;;;2.00;;
41661;SDS011;27351;45.992;12.666;2024-02-14T00:15:06;4.10;;;1.47;;
41661;SDS011;27351;45.992;12.666;2024-02-14T00:17:33;3.00;;;1.40;;
41661;SDS011;27351;45.992;12.666;2024-02-14T00:19:59;2.58;;;1.20;;
41661;SDS011;27351;45.992;12.666;2024-02-14T00:22:25;2.45;;;1.38;;
41661;SDS011;27351;45.992;12.666;2024-02-14T00:24:51;2.70;;;1.20;;
41661;SDS011;27351;45.992;12.666;2024-02-14T00:27:16;2.28;;;1.17;;
41661;SDS011;27351;45.992;12.666;2024-02-14T00:29:42;2.58;;;1.25;;
41661;SDS011;27351;45.992;12.666;2024-02-14T00:32:12;2.60;;;1.23;;
41661;SDS011;27351;45.992;12.666;2024-02-14T00:34:38;2.20;;;1.15;;
41661;SDS011;27351;45.992;12.666;2024-02-14T00:37:04;3.78;;;2.00;;
41661;SDS011;27351;45.992;12.666;2024-02-14T00:39:29;4.57;;;2.20;;
41661;SDS011;27351;45.992;12.666;2024-02-14T00:41:55;3.97;;;1.48;;
41661;SDS011;27351;45.992;12.666;2024-02-14T00:44:21;3.40;;;1.20;;
41661;SDS011;27351;45.992;12.666;2024-02-14T00:46:47;2.92;;;0.98;;
41661;SDS011;27351;45.992;12.666;2024-02-14T00:49:13;1.47;;;0.90;;
41661;SDS011;27351;45.992;12.666;2024-02-14T00:51:39;1.33;;;0.95;;
41661;SDS011;27351;45.992;12.666;2024-02-14T00:54:05;2.60;;;1.00;;
41661;SDS011;27351;45.992;12.666;2024-02-14T00:56:31;2.33;;;1.02;;
41661;SDS011;27351;45.992;12.666;2024-02-14T00:58:57;3.35;;;1.25;;
41661;SDS011;27351;45.992;12.666;2024-02-14T01:01:22;3.40;;;1.30;;
41661;SDS011;27351;45.992;12.666;2024-02-14T01:03:48;2.63;;;1.10;;
41661;SDS011;27351;45.992;12.666;2024-02-14T01:06:14;1.67;;;1.00;;
41661;SDS011;27351;45.992;12.666;2024-02-14T01:08:41;1.98;;;1.00;;
41661;SDS011;27351;45.992;12.666;2024-02-14T01:11:07;1.40;;;1.10;;
41661;SDS011;27351;45.992;12.666;2024-02-14T01:13:33;3.28;;;1.42;;
41661;SDS011;27351;45.992;12.666;2024-02-14T01:15:58;2.33;;;1.07;;
41661;SDS011;27351;45.992;12.666;2024-02-14T01:18:24;2.47;;;1.20;;
41661;SDS011;27351;45.992;12.666;2024-02-14T01:20:50;1.67;;;1.10;;
41661;SDS011;27351;45.992;12.666;2024-02-14T01:23:16;2.50;;;1.23;;
41661;SDS011;27351;45.992;12.666;2024-02-14T01:25:41;2.35;;;1.00;;
41661;SDS011;27351;45.992;12.666;2024-02-14T01:28:08;1.88;;;0.90;;
41661;SDS011;27351;45.992;12.666;2024-02-14T01:30:34;2.55;;;1.10;;
41661;SDS011;27351;45.992;12.666;2024-02-14T01:33:01;2.97;;;1.00;;
41661;SDS011;27351;45.992;12.666;2024-02-14T01:35:29;2.08;;;1.02;;
41661;SDS011;27351;45.992;12.666;2024-02-14T01:37:55;2.22;;;1.08;;
41661;SDS011;27351;45.992;12.666;2024-02-14T01:40:21;2.67;;;1.03;;
41661;SDS011;27351;45.992;12.666;2024-02-14T01:42:47;2.23;;;1.00;;
41661;SDS011;27351;45.992;12.666;2024-02-14T01:45:12;1.20;;;0.80;;
41661;SDS011;27351;45.992;12.666;2024-02-14T01:47:38;1.00;;;0.73;;
41661;SDS011;27351;45.992;12.666;2024-02-14T01:50:09;2.53;;;1.10;;
41661;SDS011;27351;45.992;12.666;2024-02-14T01:52:40;1.88;;;1.08;;
41661;SDS011;27351;45.992;12.666;2024-02-14T01:55:06;1.30;;;0.90;;
41661;SDS011;27351;45.992;12.666;2024-02-14T01:57:33;1.50;;;0.90;;
41661;SDS011;27351;45.992;12.666;2024-02-14T01:59:59;2.30;;;1.10;;
41661;SDS011;27351;45.992;12.666;2024-02-14T02:02:26;1.35;;;0.77;;
41661;SDS011;27351;45.992;12.666;2024-02-14T02:04:54;1.93;;;0.90;;
41661;SDS011;27351;45.992;12.666;2024-02-14T02:07:19;1.60;;;0.80;;
41661;SDS011;27351;45.992;12.666;2024-02-14T02:09:45;1.70;;;1.17;;
41661;SDS011;27351;45.992;12.666;2024-02-14T02:12:11;0.98;;;0.82;;
41661;SDS011;27351;45.992;12.666;2024-02-14T02:14:37;2.20;;;1.05;;
41661;SDS011;27351;45.992;12.666;2024-02-14T02:17:02;1.40;;;0.90;;
41661;SDS011;27351;45.992;12.666;2024-02-14T02:19:33;1.90;;;0.95;;
41661;SDS011;27351;45.992;12.666;2024-02-14T02:21:59;1.77;;;0.90;;
41661;SDS011;27351;45.992;12.666;2024-02-14T02:24:25;1.02;;;0.70;;
41661;SDS011;27351;45.992;12.666;2024-02-14T02:26:50;1.17;;;0.87;;
41661;SDS011;27351;45.992;12.666;2024-02-14T02:29:16;1.37;;;0.80;;
41661;SDS011;27351;45.992;12.666;2024-02-14T02:31:42;1.10;;;0.60;;
41661;SDS011;27351;45.992;12.666;2024-02-14T02:34:07;1.60;;;0.83;;
41661;SDS011;27351;45.992;12.666;2024-02-14T02:36:36;1.95;;;1.10;;
41661;SDS011;27351;45.992;12.666;2024-02-14T02:39:03;2.37;;;0.70;;
41661;SDS011;27351;45.992;12.666;2024-02-14T02:41:30;0.98;;;0.80;;
41661;SDS011;27351;45.992;12.666;2024-02-14T02:43:57;1.38;;;0.75;;
41661;SDS011;27351;45.992;12.666;2024-02-14T02:46:22;1.40;;;0.90;;
41661;SDS011;27351;45.992;12.666;2024-02-14T02:48:48;1.43;;;0.80;;
41661;SDS011;27351;45.992;12.666;2024-02-14T02:51:17;1.33;;;0.88;;
41661;SDS011;27351;45.992;12.666;2024-02-14T02:53:43;1.25;;;0.82;;
41661;SDS011;27351;45.992;12.666;2024-02-14T02:56:08;2.27;;;0.70;;
41661;SDS011;27351;45.992;12.666;2024-02-14T02:58:34;2.00;;;1.00;;
41661;SDS011;27351;45.992;12.666;2024-02-14T03:01:00;2.07;;;0.77;;
41661;SDS011;27351;45.992;12.666;2024-02-14T03:03:26;2.90;;;0.93;;
41661;SDS011;27351;45.992;12.666;2024-02-14T03:05:53;1.40;;;0.80;;
41661;SDS011;27351;45.992;12.666;2024-02-14T03:08:20;1.10;;;0.73;;
41661;SDS011;27351;45.992;12.666;2024-02-14T03:10:47;1.40;;;0.80;;
41661;SDS011;27351;45.992;12.666;2024-02-14T03:13:12;2.10;;;0.90;;
41661;SDS011;27351;45.992;12.666;2024-02-14T03:15:38;1.85;;;0.85;;
41661;SDS011;27351;45.992;12.666;2024-02-14T03:18:04;2.30;;;1.00;;
41661;SDS011;27351;45.992;12.666;2024-02-14T03:20:35;1.27;;;0.70;;
41661;SDS011;27351;45.992;12.666;2024-02-14T03:23:01;2.20;;;0.73;;
41661;SDS011;27351;45.992;12.666;2024-02-14T03:25:29;2.25;;;0.65;;
41661;SDS011;27351;45.992;12.666;2024-02-14T03:27:54;0.82;;;0.60;;
41661;SDS011;27351;45.992;12.666;2024-02-14T03:30:22;1.15;;;0.60;;
41661;SDS011;27351;45.992;12.666;2024-02-14T03:32:48;1.58;;;0.80;;
41661;SDS011;27351;45.992;12.666;2024-02-14T03:35:14;2.38;;;0.90;;
41661;SDS011;27351;45.992;12.666;2024-02-14T03:37:43;0.68;;;0.60;;
41661;SDS011;27351;45.992;12.666;2024-02-14T03:40:12;0.95;;;0.70;;
41661;SDS011;27351;45.992;12.666;2024-02-14T03:42:38;1.47;;;0.70;;
41661;SDS011;27351;45.992;12.666;2024-02-14T03:45:07;1.23;;;0.80;;
41661;SDS011;27351;45.992;12.666;2024-02-14T03:47:33;1.25;;;0.85;;
41661;SDS011;27351;45.992;12.666;2024-02-14T03:49:59;1.33;;;0.80;;
41661;SDS011;27351;45.992;12.666;2024-02-14T03:52:25;1.92;;;0.85;;
41661;SDS011;27351;45.992;12.666;2024-02-14T03:54:52;1.73;;;1.10;;
41661;SDS011;27351;45.992;12.666;2024-02-14T03:57:17;1.17;;;0.77;;
41661;SDS011;27351;45.992;12.666;2024-02-14T03:59:43;2.47;;;0.87;;
41661;SDS011;27351;45.992;12.666;2024-02-14T04:02:09;1.30;;;0.80;;
41661;SDS011;27351;45.992;12.666;2024-02-14T04:04:41;0.97;;;0.80;;
41661;SDS011;27351;45.992;12.666;2024-02-14T04:07:07;2.38;;;1.13;;
41661;SDS011;27351;45.992;12.666;2024-02-14T04:09:34;1.25;;;0.70;;
41661;SDS011;27351;45.992;12.666;2024-02-14T04:12:00;1.40;;;0.80;;
41661;SDS011;27351;45.992;12.666;2024-02-14T04:14:25;1.30;;;0.80;;
41661;SDS011;27351;45.992;12.666;2024-02-14T04:16:51;1.48;;;0.95;;
41661;SDS011;27351;45.992;12.666;2024-02-14T04:19:17;1.48;;;0.85;;
41661;SDS011;27351;45.992;12.666;2024-02-14T04:21:43;1.98;;;0.95;;
41661;SDS011;27351;45.992;12.666;2024-02-14T04:24:08;0.90;;;0.60;;
41661;SDS011;27351;45.992;12.666;2024-02-14T04:26:34;1.13;;;0.80;;
41661;SDS011;27351;45.992;12.666;2024-02-14T04:29:00;2.30;;;1.07;;
41661;SDS011;27351;45.992;12.666;2024-02-14T04:31:25;1.52;;;0.93;;
41661;SDS011;27351;45.992;12.666;2024-02-14T04:33:55;1.55;;;0.80;;
41661;SDS011;27351;45.992;12.666;2024-02-14T04:36:21;2.35;;;0.90;;
41661;SDS011;27351;45.992;12.666;2024-02-14T04:38:48;2.13;;;0.85;;
41661;SDS011;27351;45.992;12.666;2024-02-14T04:41:14;1.40;;;0.90;;
41661;SDS011;27351;45.992;12.666;2024-02-14T04:43:40;2.20;;;1.17;;
41661;SDS011;27351;45.992;12.666;2024-02-14T04:46:06;1.95;;;0.90;;
41661;SDS011;27351;45.992;12.666;2024-02-14T04:48:33;1.73;;;0.95;;
41661;SDS011;27351;45.992;12.666;2024-02-14T04:50:58;1.38;;;0.70;;
41661;SDS011;27351;45.992;12.666;2024-02-14T04:53:24;1.30;;;0.80;;
41661;SDS011;27351;45.992;12.666;2024-02-14T04:55:50;1.40;;;0.87;;
41661;SDS011;27351;45.992;12.666;2024-02-14T04:58:15;1.07;;;0.70;;
41661;SDS011;27351;45.992;12.666;2024-02-14T05:00:41;1.25;;;0.85;;
41661;SDS011;27351;45.992;12.666;2024-02-14T05:03:07;1.10;;;0.60;;
41661;SDS011;27351;45.992;12.666;2024-02-14T05:05:32;1.75;;;0.80;;
41661;SDS011;27351;45.992;12.666;2024-02-14T05:08:01;2.22;;;1.27;;
41661;SDS011;27351;45.992;12.666;2024-02-14T05:10:30;5.50;;;1.05;;
41661;SDS011;27351;45.992;12.666;2024-02-14T05:12:56;1.98;;;1.02;;
41661;SDS011;27351;45.992;12.666;2024-02-14T05:15:22;2.30;;;1.00;;
41661;SDS011;27351;45.992;12.666;2024-02-14T05:17:47;2.03;;;0.80;;
41661;SDS011;27351;45.992;12.666;2024-02-14T05:20:15;2.10;;;0.88;;
41661;SDS011;27351;45.992;12.666;2024-02-14T05:22:41;3.85;;;0.95;;
41661;SDS011;27351;45.992;12.666;2024-02-14T05:25:07;2.53;;;0.90;;
41661;SDS011;27351;45.992;12.666;2024-02-14T05:27:34;3.03;;;1.15;;
41661;SDS011;27351;45.992;12.666;2024-02-14T05:30:00;0.80;;;0.60;;
41661;SDS011;27351;45.992;12.666;2024-02-14T05:32:26;1.95;;;0.85;;
41661;SDS011;27351;45.992;12.666;2024-02-14T05:34:52;2.17;;;0.80;;
41661;SDS011;27351;45.992;12.666;2024-02-14T05:37:17;1.98;;;0.80;;
41661;SDS011;27351;45.992;12.666;2024-02-14T05:39:43;1.50;;;0.60;;
41661;SDS011;27351;45.992;12.666;2024-02-14T05:42:09;1.77;;;1.13;;
41661;SDS011;27351;45.992;12.666;2024-02-14T05:44:34;2.03;;;1.00;;
41661;SDS011;27351;45.992;12.666;2024-02-14T05:47:00;2.07;;;1.00;;
41661;SDS011;27351;45.992;12.666;2024-02-14T05:49:25;2.30;;;1.20;;
41661;SDS011;27351;45.992;12.666;2024-02-14T05:51:51;3.27;;;1.27;;
41661;SDS011;27351;45.992;12.666;2024-02-14T05:54:18;2.92;;;1.05;;
41661;SDS011;27351;45.992;12.666;2024-02-14T05:56:45;2.22;;;1.20;;
41661;SDS011;27351;45.992;12.666;2024-02-14T05:59:11;4.03;;;1.55;;
41661;SDS011;27351;45.992;12.666;2024-02-14T06:01:37;2.28;;;1.00;;
41661;SDS011;27351;45.992;12.666;2024-02-14T06:04:03;2.85;;;1.10;;
41661;SDS011;27351;45.992;12.666;2024-02-14T06:06:28;2.65;;;1.23;;
41661;SDS011;27351;45.992;12.666;2024-02-14T06:08:54;3.47;;;1.57;;
41661;SDS011;27351;45.992;12.666;2024-02-14T06:11:20;3.00;;;1.50;;
41661;SDS011;27351;45.992;12.666;2024-02-14T06:13:47;3.42;;;1.80;;
41661;SDS011;27351;45.992;12.666;2024-02-14T06:16:13;2.33;;;1.25;;
41661;SDS011;27351;45.992;12.666;2024-02-14T06:18:38;3.13;;;1.63;;
41661;SDS011;27351;45.992;12.666;2024-02-14T06:21:05;2.45;;;1.33;;
41661;SDS011;27351;45.992;12.666;2024-02-14T06:23:31;2.33;;;1.10;;
41661;SDS011;27351;45.992;12.666;2024-02-14T06:25:57;2.50;;;1.30;;
41661;SDS011;27351;45.992;12.666;2024-02-14T06:28:23;3.17;;;1.43;;
41661;SDS011;27351;45.992;12.666;2024-02-14T06:30:48;2.50;;;1.52;;
41661;SDS011;27351;45.992;12.666;2024-02-14T06:33:14;4.43;;;1.92;;
41661;SDS011;27351;45.992;12.666;2024-02-14T06:35:40;5.10;;;1.20;;
41661;SDS011;27351;45.992;12.666;2024-02-14T06:38:05;2.28;;;1.00;;
41661;SDS011;27351;45.992;12.666;2024-02-14T06:40:32;3.42;;;1.20;;
41661;SDS011;27351;45.992;12.666;2024-02-14T06:42:58;2.83;;;1.20;;
41661;SDS011;27351;45.992;12.666;2024-02-14T06:45:25;2.38;;;1.25;;
41661;SDS011;27351;45.992;12.666;2024-02-14T06:47:51;1.80;;;1.00;;
41661;SDS011;27351;45.992;12.666;2024-02-14T06:50:16;4.75;;;1.42;;
41661;SDS011;27351;45.992;12.666;2024-02-14T06:52:42;2.78;;;1.20;;
41661;SDS011;27351;45.992;12.666;2024-02-14T06:55:07;2.63;;;1.05;;
41661;SDS011;27351;45.992;12.666;2024-02-14T06:57:33;2.42;;;1.08;;
41661;SDS011;27351;45.992;12.666;2024-02-14T06:59:59;2.35;;;1.13;;
41661;SDS011;27351;45.992;12.666;2024-02-14T07:02:25;2.20;;;1.30;;
41661;SDS011;27351;45.992;12.666;2024-02-14T07:04:53;6.05;;;1.27;;
41661;SDS011;27351;45.992;12.666;2024-02-14T07:07:19;2.10;;;1.13;;
41661;SDS011;27351;45.992;12.666;2024-02-14T07:09:45;2.03;;;1.00;;
41661;SDS011;27351;45.992;12.666;2024-02-14T07:12:11;3.20;;;1.20;;
41661;SDS011;27351;45.992;12.666;2024-02-14T07:14:36;1.93;;;0.90;;
41661;SDS011;27351;45.992;12.666;2024-02-14T07:17:02;1.90;;;1.00;;
41661;SDS011;27351;45.992;12.666;2024-02-14T07:19:28;2.05;;;1.17;;
41661;SDS011;27351;45.992;12.666;2024-02-14T07:21:54;1.77;;;0.90;;
41661;SDS011;27351;45.992;12.666;2024-02-14T07:24:19;1.35;;;0.80;;
41661;SDS011;27351;45.992;12.666;2024-02-14T07:26:45;1.35;;;0.90;;
41661;SDS011;27351;45.992;12.666;2024-02-14T07:29:11;1.80;;;0.80;;
41661;SDS011;27351;45.992;12.666;2024-02-14T07:31:37;1.33;;;0.83;;
41661;SDS011;27351;45.992;12.666;2024-02-14T07:34:02;1.40;;;1.10;;
41661;SDS011;27351;45.992;12.666;2024-02-14T07:36:31;2.13;;;0.90;;
41661;SDS011;27351;45.992;12.666;2024-02-14T07:38:57;4.07;;;1.00;;
41661;SDS011;27351;45.992;12.666;2024-02-14T07:41:23;1.65;;;0.82;;
41661;SDS011;27351;45.992;12.666;2024-02-14T07:43:48;1.55;;;1.00;;
41661;SDS011;27351;45.992;12.666;2024-02-14T07:46:18;2.53;;;1.00;;
41661;SDS011;27351;45.992;12.666;2024-02-14T07:48:44;2.00;;;1.02;;
41661;SDS011;27351;45.992;12.666;2024-02-14T07:51:10;3.07;;;1.30;;
41661;SDS011;27351;45.992;12.666;2024-02-14T07:53:35;4.47;;;1.50;;
41661;SDS011;27351;45.992;12.666;2024-02-14T07:56:01;2.43;;;1.17;;
41661;SDS011;27351;45.992;12.666;2024-02-14T07:58:26;1.50;;;1.03;;
41661;SDS011;27351;45.992;12.666;2024-02-14T08:00:52;3.50;;;1.00;;
41661;SDS011;27351;45.992;12.666;2024-02-14T08:03:17;2.37;;;1.03;;
41661;SDS011;27351;45.992;12.666;2024-02-14T08:05:43;2.60;;;1.00;;
41661;SDS011;27351;45.992;12.666;2024-02-14T08:08:09;2.40;;;1.00;;
41661;SDS011;27351;45.992;12.666;2024-02-14T08:10:34;3.80;;;1.30;;
41661;SDS011;27351;45.992;12.666;2024-02-14T08:13:00;2.93;;;1.30;;
41661;SDS011;27351;45.992;12.666;2024-02-14T08:15:26;3.17;;;1.10;;
41661;SDS011;27351;45.992;12.666;2024-02-14T08:17:51;1.73;;;1.07;;
41661;SDS011;27351;45.992;12.666;2024-02-14T08:20:21;2.40;;;0.93;;
41661;SDS011;27351;45.992;12.666;2024-02-14T08:22:46;1.80;;;1.13;;
41661;SDS011;27351;45.992;12.666;2024-02-14T08:25:12;2.90;;;1.30;;
41661;SDS011;27351;45.992;12.666;2024-02-14T08:27:38;2.27;;;1.17;;
41661;SDS011;27351;45.992;12.666;2024-02-14T08:30:04;2.73;;;1.10;;
41661;SDS011;27351;45.992;12.666;2024-02-14T08:32:33;3.92;;;1.52;;
41661;SDS011;27351;45.992;12.666;2024-02-14T08:34:59;4.70;;;1.98;;
41661;SDS011;27351;45.992;12.666;2024-02-14T08:37:24;5.27;;;1.93;;
41661;SDS011;27351;45.992;12.666;2024-02-14T08:39:50;3.20;;;1.63;;
41661;SDS011;27351;45.992;12.666;2024-02-14T08:42:16;3.53;;;1.50;;
41661;SDS011;27351;45.992;12.666;2024-02-14T08:44:41;3.13;;;1.20;;
41661;SDS011;27351;45.992;12.666;2024-02-14T08:47:07;2.67;;;1.20;;
41661;SDS011;27351;45.992;12.666;2024-02-14T08:49:34;2.63;;;1.38;;
41661;SDS011;27351;45.992;12.666;2024-02-14T08:52:00;2.85;;;1.30;;
41661;SDS011;27351;45.992;12.666;2024-02-14T08:54:25;3.22;;;1.30;;
41661;SDS011;27351;45.992;12.666;2024-02-14T08:56:53;4.20;;;1.48;;
41661;SDS011;27351;45.992;12.666;2024-02-14T08:59:21;2.78;;;1.33;;
41661;SDS011;27351;45.992;12.666;2024-02-14T09:01:47;2.73;;;1.43;;
41661;SDS011;27351;45.992;12.666;2024-02-14T09:04:13;2.55;;;1.30;;
41661;SDS011;27351;45.992;12.666;2024-02-14T09:06:39;4.40;;;1.67;;
41661;SDS011;27351;45.992;12.666;2024-02-14T09:09:06;2.80;;;1.20;;
41661;SDS011;27351;45.992;12.666;2024-02-14T09:11:32;3.33;;;1.60;;
41661;SDS011;27351;45.992;12.666;2024-02-14T09:13:58;2.88;;;1.30;;
41661;SDS011;27351;45.992;12.666;2024-02-14T09:16:30;1.90;;;1.27;;
41661;SDS011;27351;45.992;12.666;2024-02-14T09:18:56;3.83;;;1.65;;
41661;SDS011;27351;45.992;12.666;2024-02-14T09:21:23;3.80;;;1.38;;
41661;SDS011;27351;45.992;12.666;2024-02-14T09:23:49;2.90;;;1.60;;
41661;SDS011;27351;45.992;12.666;2024-02-14T09:26:15;3.00;;;1.45;;
41661;SDS011;27351;45.992;12.666;2024-02-14T09:28:42;2.78;;;1.48;;
41661;SDS011;27351;45.992;12.666;2024-02-14T09:31:08;3.27;;;1.10;;
41661;SDS011;27351;45.992;12.666;2024-02-14T09:33:36;3.95;;;1.70;;
41661;SDS011;27351;45.992;12.666;2024-02-14T09:36:02;3.30;;;1.47;;
41661;SDS011;27351;45.992;12.666;2024-02-14T09:38:29;2.97;;;1.33;;
41661;SDS011;27351;45.992;12.666;2024-02-14T09:40:57;1.77;;;1.13;;
41661;SDS011;27351;45.992;12.666;2024-02-14T09:45:51;2.88;;;1.20;;
41661;SDS011;27351;45.992;12.666;2024-02-14T09:48:18;2.45;;;1.30;;
41661;SDS011;27351;45.992;12.666;2024-02-14T09:50:45;3.33;;;1.02;;
41661;SDS011;27351;45.992;12.666;2024-02-14T09:53:12;3.20;;;0.80;;
41661;SDS011;27351;45.992;12.666;2024-02-14T09:55:38;2.95;;;1.40;;
41661;SDS011;27351;45.992;12.666;2024-02-14T09:58:06;2.45;;;1.10;;
41661;SDS011;27351;45.992;12.666;2024-02-14T10:00:32;3.07;;;1.03;;
41661;SDS011;27351;45.992;12.666;2024-02-14T10:02:58;1.42;;;1.00;;
41661;SDS011;27351;45.992;12.666;2024-02-14T10:05:24;2.10;;;0.90;;
41661;SDS011;27351;45.992;12.666;2024-02-14T10:07:50;0.52;;;0.38;;
41661;SDS011;27351;45.992;12.666;2024-02-14T10:10:16;1.37;;;0.60;;
41661;SDS011;27351;45.992;12.666;2024-02-14T10:12:42;1.83;;;0.80;;
41661;SDS011;27351;45.992;12.666;2024-02-14T10:15:08;3.73;;;1.00;;
41661;SDS011;27351;45.992;12.666;2024-02-14T10:17:34;1.05;;;0.50;;
41661;SDS011;27351;45.992;12.666;2024-02-14T10:20:00;3.13;;;0.70;;
41661;SDS011;27351;45.992;12.666;2024-02-14T10:22:37;1.50;;;0.85;;
41661;SDS011;27351;45.992;12.666;2024-02-14T10:25:03;2.55;;;0.70;;
41661;SDS011;27351;45.992;12.666;2024-02-14T10:27:32;1.60;;;0.73;;
41661;SDS011;27351;45.992;12.666;2024-02-14T10:29:58;1.95;;;0.80;;
41661;SDS011;27351;45.992;12.666;2024-02-14T10:32:24;1.80;;;0.80;;
41661;SDS011;27351;45.992;12.666;2024-02-14T10:34:51;1.50;;;0.82;;
41661;SDS011;27351;45.992;12.666;2024-02-14T10:37:17;3.13;;;0.98;;
41661;SDS011;27351;45.992;12.666;2024-02-14T10:39:44;1.70;;;0.90;;
41661;SDS011;27351;45.992;12.666;2024-02-14T10:42:12;0.90;;;0.55;;
41661;SDS011;27351;45.992;12.666;2024-02-14T10:44:38;1.83;;;0.80;;
41661;SDS011;27351;45.992;12.666;2024-02-14T10:47:03;2.67;;;1.00;;
41661;SDS011;27351;45.992;12.666;2024-02-14T10:49:32;2.87;;;1.00;;
41661;SDS011;27351;45.992;12.666;2024-02-14T10:51:58;2.45;;;1.00;;
41661;SDS011;27351;45.992;12.666;2024-02-14T10:54:30;1.27;;;0.70;;
41661;SDS011;27351;45.992;12.666;2024-02-14T10:56:56;2.00;;;0.90;;
41661;SDS011;27351;45.992;12.666;2024-02-14T10:59:23;3.15;;;0.98;;
41661;SDS011;27351;45.992;12.666;2024-02-14T11:01:50;2.80;;;1.02;;
41661;SDS011;27351;45.992;12.666;2024-02-14T11:04:16;1.80;;;1.00;;
41661;SDS011;27351;45.992;12.666;2024-02-14T11:06:47;3.53;;;1.02;;
41661;SDS011;27351;45.992;12.666;2024-02-14T11:09:13;2.63;;;1.10;;
41661;SDS011;27351;45.992;12.666;2024-02-14T11:11:42;4.65;;;1.20;;
41661;SDS011;27351;45.992;12.666;2024-02-14T11:14:08;2.97;;;1.13;;
41661;SDS011;27351;45.992;12.666;2024-02-14T11:16:34;1.90;;;1.00;;
41661;SDS011;27351;45.992;12.666;2024-02-14T11:19:12;3.70;;;1.30;;
41661;SDS011;27351;45.992;12.666;2024-02-14T11:21:41;2.63;;;1.00;;
41661;SDS011;27351;45.992;12.666;2024-02-14T11:24:12;3.10;;;1.10;;
41661;SDS011;27351;45.992;12.666;2024-02-14T11:26:50;1.77;;;1.17;;
41661;SDS011;27351;45.992;12.666;2024-02-14T11:29:20;2.27;;;1.17;;
41661;SDS011;27351;45.992;12.666;2024-02-14T11:31:46;3.50;;;1.20;;
41661;SDS011;27351;45.992;12.666;2024-02-14T11:34:13;2.38;;;0.90;;
41661;SDS011;27351;45.992;12.666;2024-02-14T11:36:42;1.83;;;1.00;;
41661;SDS011;27351;45.992;12.666;2024-02-14T11:39:10;3.55;;;1.20;;
41661;SDS011;27351;45.992;12.666;2024-02-14T11:41:37;2.72;;;1.10;;
41661;SDS011;27351;45.992;12.666;2024-02-14T11:44:03;2.83;;;0.88;;
41661;SDS011;27351;45.992;12.666;2024-02-14T11:46:36;2.00;;;0.90;;
41661;SDS011;27351;45.992;12.666;2024-02-14T11:49:03;2.47;;;1.10;;
41661;SDS011;27351;45.992;12.666;2024-02-14T11:51:29;2.05;;;0.98;;
41661;SDS011;27351;45.992;12.666;2024-02-14T11:53:59;1.75;;;0.80;;
41661;SDS011;27351;45.992;12.666;2024-02-14T11:56:37;2.17;;;1.13;;
41661;SDS011;27351;45.992;12.666;2024-02-14T11:59:03;1.73;;;0.95;;
41661;SDS011;27351;45.992;12.666;2024-02-14T12:01:30;2.83;;;1.20;;
41661;SDS011;27351;45.992;12.666;2024-02-14T12:03:57;3.60;;;1.45;;
41661;SDS011;27351;45.992;12.666;2024-02-14T12:06:22;1.75;;;0.90;;
41661;SDS011;27351;45.992;12.666;2024-02-14T12:08:50;2.50;;;1.35;;
41661;SDS011;27351;45.992;12.666;2024-02-14T12:11:16;2.00;;;0.98;;
41661;SDS011;27351;45.992;12.666;2024-02-14T12:13:43;4.15;;;0.95;;
41661;SDS011;27351;45.992;12.666;2024-02-14T12:16:12;2.72;;;1.00;;
41661;SDS011;27351;45.992;12.666;2024-02-14T12:18:37;3.10;;;0.90;;
41661;SDS011;27351;45.992;12.666;2024-02-14T12:21:05;2.45;;;1.00;;
41661;SDS011;27351;45.992;12.666;2024-02-14T12:23:34;3.00;;;1.00;;
41661;SDS011;27351;45.992;12.666;2024-02-14T12:26:02;3.08;;;1.20;;
41661;SDS011;27351;45.992;12.666;2024-02-14T12:28:29;2.05;;;1.13;;
41661;SDS011;27351;45.992;12.666;2024-02-14T12:30:58;2.55;;;1.10;;
41661;SDS011;27351;45.992;12.666;2024-02-14T12:33:27;2.38;;;1.08;;
41661;SDS011;27351;45.992;12.666;2024-02-14T12:35:55;3.08;;;1.13;;
41661;SDS011;27351;45.992;12.666;2024-02-14T12:38:21;2.70;;;1.47;;
41661;SDS011;27351;45.992;12.666;2024-02-14T12:40:48;4.13;;;1.65;;
41661;SDS011;27351;45.992;12.666;2024-02-14T12:43:14;4.37;;;1.50;;
41661;SDS011;27351;45.992;12.666;2024-02-14T12:45:41;4.10;;;1.30;;
41661;SDS011;27351;45.992;12.666;2024-02-14T12:48:07;4.07;;;1.90;;
41661;SDS011;27351;45.992;12.666;2024-02-14T12:50:34;2.85;;;1.48;;
41661;SDS011;27351;45.992;12.666;2024-02-14T12:53:18;4.75;;;1.90;;
41661;SDS011;27351;45.992;12.666;2024-02-14T12:55:45;3.90;;;1.90;;
41661;SDS011;27351;45.992;12.666;2024-02-14T12:58:11;4.90;;;2.03;;
41661;SDS011;27351;45.992;12.666;2024-02-14T13:00:37;5.47;;;2.20;;
41661;SDS011;27351;45.992;12.666;2024-02-14T13:03:03;5.60;;;2.40;;
41661;SDS011;27351;45.992;12.666;2024-02-14T13:05:29;5.90;;;2.10;;
41661;SDS011;27351;45.992;12.666;2024-02-14T13:07:55;4.97;;;2.30;;
41661;SDS011;27351;45.992;12.666;2024-02-14T13:10:21;5.17;;;2.67;;
41661;SDS011;27351;45.992;12.666;2024-02-14T13:12:47;6.55;;;2.42;;
41661;SDS011;27351;45.992;12.666;2024-02-14T13:15:13;6.85;;;2.78;;
41661;SDS011;27351;45.992;12.666;2024-02-14T13:17:38;6.47;;;2.60;;
41661;SDS011;27351;45.992;12.666;2024-02-14T13:20:04;5.60;;;2.47;;
41661;SDS011;27351;45.992;12.666;2024-02-14T13:22:30;6.15;;;2.95;;
41661;SDS011;27351;45.992;12.666;2024-02-14T13:24:56;7.78;;;3.50;;
41661;SDS011;27351;45.992;12.666;2024-02-14T13:27:22;6.07;;;2.40;;
41661;SDS011;27351;45.992;12.666;2024-02-14T13:29:48;5.53;;;2.50;;
41661;SDS011;27351;45.992;12.666;2024-02-14T13:32:15;6.82;;;2.90;;
41661;SDS011;27351;45.992;12.666;2024-02-14T13:34:40;7.13;;;2.90;;
41661;SDS011;27351;45.992;12.666;2024-02-14T13:37:06;7.05;;;2.80;;
41661;SDS011;27351;45.992;12.666;2024-02-14T13:39:31;8.35;;;3.42;;
41661;SDS011;27351;45.992;12.666;2024-02-14T13:41:57;7.93;;;3.45;;
41661;SDS011;27351;45.992;12.666;2024-02-14T13:44:25;7.03;;;3.13;;
41661;SDS011;27351;45.992;12.666;2024-02-14T13:46:51;8.00;;;3.05;;
41661;SDS011;27351;45.992;12.666;2024-02-14T13:49:18;6.40;;;2.60;;
41661;SDS011;27351;45.992;12.666;2024-02-14T13:51:50;6.73;;;3.10;;
41661;SDS011;27351;45.992;12.666;2024-02-14T13:54:19;9.52;;;3.78;;
41661;SDS011;27351;45.992;12.666;2024-02-14T13:56:45;9.40;;;3.40;;
41661;SDS011;27351;45.992;12.666;2024-02-14T13:59:11;9.33;;;3.83;;
41661;SDS011;27351;45.992;12.666;2024-02-14T14:01:37;7.97;;;3.27;;
41661;SDS011;27351;45.992;12.666;2024-02-14T14:04:03;7.53;;;3.20;;
41661;SDS011;27351;45.992;12.666;2024-02-14T14:06:29;6.57;;;3.30;;
41661;SDS011;27351;45.992;12.666;2024-02-14T14:08:55;6.30;;;3.35;;
41661;SDS011;27351;45.992;12.666;2024-02-14T14:11:20;7.57;;;3.60;;
41661;SDS011;27351;45.992;12.666;2024-02-14T14:13:46;10.50;;;3.45;;
41661;SDS011;27351;45.992;12.666;2024-02-14T14:16:12;6.72;;;2.80;;
41661;SDS011;27351;45.992;12.666;2024-02-14T14:18:37;7.70;;;3.10;;
41661;SDS011;27351;45.992;12.666;2024-02-14T14:21:04;9.80;;;3.38;;
41661;SDS011;27351;45.992;12.666;2024-02-14T14:23:30;6.55;;;3.03;;
41661;SDS011;27351;45.992;12.666;2024-02-14T14:25:56;7.47;;;2.65;;
41661;SDS011;27351;45.992;12.666;2024-02-14T14:28:21;5.72;;;2.47;;
41661;SDS011;27351;45.992;12.666;2024-02-14T14:30:56;7.05;;;2.72;;